Latest Weather Observations for Mount Gellibrand

IDV60801

Issued at 1:31 pm EST Thursday 28 May 2015 (issued every 30 minutes, with the page automatically refreshed every 10 minutes)

About weather observations | Map of weather stations | Latest weather observations for VIC | Other Formats
Station Details ID: 090035 Name: MOUNT GELLIBRAND Lat: -38.23 Lon: 143.79 Height: 261.0 m
Data from the previous 72 hours. | See also: Recent months at Mount Gellibrand
Date/Time
EST
Temp
°C
App
Temp
°C
Dew
Point
Rel
Hum
%
Delta-T
°C
Wind Press
QNH
hPa
Press
MSL
hPa
Rain
since 9 am
mm
Dir
 
Spd
km/h
Gust
km/h
Spd
kts
Gust
kts
28/01:30pm 16.3 7.9 9.5 64 3.6 NW 44 54 24 29 1012.4 1012.4 1.0
28/01:00pm 15.9 6.2 9.1 64 3.5 NW 50 59 27 32 1012.5 1012.5 1.0
28/12:30pm 15.3 6.7 9.0 66 3.3 NW 44 54 24 29 1012.8 1012.8 1.0
28/12:00pm 14.2 6.2 9.0 71 2.7 NNW 41 52 22 28 1013.4 1013.4 1.0
28/11:30am 13.8 5.6 9.6 76 2.2 NNW 43 52 23 28 1014.0 1014.0 1.0
28/11:00am 12.2 1.9 8.3 77 2.0 NNW 52 69 28 37 1014.6 1014.7 1.0
28/10:55am 12.5 2.6 8.2 75 2.2 NNW 50 69 27 37 1014.3 1014.3 0.8
28/10:30am 12.5 5.0 9.5 82 1.5 NNW 39 48 21 26 1014.8 1014.9 0.4
28/10:00am 11.6 4.0 7.7 77 1.9 NNW 37 44 20 24 1015.2 1015.3 0.2
28/09:30am 11.1 3.6 8.0 81 1.5 NNW 37 46 20 25 1015.1 1015.2 0.2
28/09:00am 12.8 4.4 7.5 70 2.6 NNW 41 50 22 27 1015.3 1015.4 0.0
28/08:30am 11.7 3.6 7.0 73 2.3 NNW 39 44 21 24 1014.7 1014.8 0.0
28/08:00am 11.0 3.3 7.1 77 1.9 NNW 37 43 20 23 1014.9 1015.0 0.0
28/07:30am 10.9 2.8 7.0 77 1.9 NNW 39 46 21 25 1015.1 1015.2 0.0
28/07:00am 11.5 3.4 7.2 75 2.1 NNW 39 46 21 25 1015.2 1015.3 0.0
28/06:30am 11.6 3.9 7.3 75 2.1 NNW 37 46 20 25 1014.8 1014.9 0.0
28/06:00am 11.8 4.6 7.5 75 2.1 NNW 35 41 19 22 1014.7 1014.8 0.0
28/05:30am 11.7 4.8 7.4 75 2.1 NNW 33 37 18 20 1014.6 1014.7 0.0
28/05:00am 12.0 4.0 7.5 74 2.2 NNW 39 46 21 25 1014.7 1014.8 0.0
28/04:30am 11.5 4.2 7.4 76 2.0 NNW 35 43 19 23 1015.0 1015.1 0.0
28/04:00am 11.6 5.3 7.5 76 2.0 NNW 30 35 16 19 1015.3 1015.4 0.0
28/03:30am 11.7 4.8 7.2 74 2.2 NNW 33 37 18 20 1015.1 1015.2 0.0
28/03:00am 11.6 4.9 7.3 75 2.1 N 32 35 17 19 1015.4 1015.5 0.0
28/02:30am 11.7 5.8 7.4 75 2.1 N 28 30 15 16 1015.7 1015.8 0.0
28/02:00am 12.1 6.2 7.6 74 2.2 NNW 28 30 15 16 1016.0 1016.0 0.0
28/01:30am 12.7 6.8 7.6 71 2.5 NNW 28 33 15 18 1016.2 1016.2 0.0
28/01:00am 12.8 6.6 7.7 71 2.5 NNW 30 33 16 18 1016.3 1016.3 0.0
28/12:30am 13.1 6.3 7.8 70 2.6 NNW 33 37 18 20 1016.5 1016.5 0.0
28/12:00am 12.8 5.7 7.9 72 2.4 NNW 35 41 19 22 1016.6 1016.6 0.0
 
Date/Time
EST
Temp
°C
App
Temp
°C
Dew
Point
Rel
Hum
%
Delta-T
°C
Wind Press
QNH
hPa
Press
MSL
hPa
Rain
since 9 am
mm
Dir
 
Spd
km/h
Gust
km/h
Spd
kts
Gust
kts
27/11:30pm 12.9 6.2 8.2 73 2.4 NNW 33 39 18 21 1016.7 1016.7 0.0
27/11:00pm 12.9 6.5 8.4 74 2.3 NNW 32 37 17 20 1016.8 1016.8 0.0
27/10:30pm 12.8 6.4 8.7 76 2.1 NNW 32 37 17 20 1016.9 1016.9 0.0
27/10:00pm 12.6 6.2 8.7 77 2.0 NNW 32 37 17 20 1017.0 1017.0 0.0
27/09:30pm 12.7 6.2 9.0 78 1.9 NNW 33 39 18 21 1017.0 1017.0 0.0
27/09:00pm 12.7 6.2 9.0 78 1.9 NNW 33 37 18 20 1016.9 1016.9 0.0
27/08:30pm 12.5 6.6 9.1 80 1.7 NNW 30 35 16 19 1017.1 1017.1 0.0
27/08:00pm 12.3 6.5 9.3 82 1.5 NNW 30 33 16 18 1017.0 1017.0 0.0
27/07:30pm 12.1 5.8 9.1 82 1.5 N 32 33 17 18 1017.0 1017.0 0.0
27/07:00pm 12.4 6.1 9.1 80 1.7 N 32 35 17 19 1017.0 1017.0 0.0
27/06:30pm 13.0 6.2 9.3 78 1.9 NNW 35 41 19 22 1016.9 1016.9 0.0
27/06:00pm 13.3 7.1 9.2 76 2.1 N 32 37 17 20 1016.8 1016.8 0.0
27/05:30pm 14.2 8.3 9.2 72 2.6 NNW 30 35 16 19 1016.7 1016.7 0.0
27/05:00pm 15.1 8.6 9.0 67 3.2 NNW 33 41 18 22 1016.6 1016.6 0.0
27/04:30pm 15.6 8.8 9.3 66 3.3 NW 35 41 19 22 1016.4 1016.4 0.0
27/04:00pm 16.0 9.8 9.2 64 3.6 NW 32 39 17 21 1016.6 1016.6 0.0
27/03:30pm 17.0 11.3 9.7 62 3.9 NW 30 39 16 21 1016.5 1016.5 0.0
27/03:00pm 16.6 10.3 9.8 64 3.6 NW 33 41 18 22 1016.3 1016.3 0.0
27/02:30pm 17.6 11.6 10.2 62 4.0 NNW 32 41 17 22 1016.3 1016.3 0.0
27/02:00pm 17.2 11.3 10.3 64 3.7 NNW 32 41 17 22 1016.6 1016.6 0.0
27/01:30pm 16.5 10.2 9.7 64 3.6 NNW 33 43 18 23 1017.0 1017.0 0.0
27/01:00pm 16.4 10.3 9.6 64 3.6 NNW 32 41 17 22 1017.2 1017.2 0.0
27/12:30pm 16.0 9.7 9.7 66 3.3 NNW 33 43 18 23 1017.6 1017.6 0.0
27/12:00pm 15.4 8.3 9.5 68 3.1 NNW 37 43 20 23 1017.9 1018.0 0.0
27/11:30am 14.9 7.0 9.3 69 2.9 NNW 41 46 22 25 1018.3 1018.4 0.0
27/11:00am 13.5 7.1 9.2 75 2.2 N 33 43 18 23 1018.8 1018.9 0.0
27/10:30am 13.3 7.4 9.2 76 2.1 N 30 37 16 20 1019.0 1019.1 0.0
27/10:00am 12.1 6.1 8.8 80 1.7 NNW 30 39 16 21 1018.9 1019.0 0.0
27/09:30am 11.5 5.4 8.2 80 1.6 NNW 30 35 16 19 1019.0 1019.1 0.0
27/09:00am 11.2 4.5 7.3 77 1.9 NNW 32 35 17 19 1018.9 1019.0 0.0
27/08:30am 10.9 4.1 7.0 77 1.9 NNW 32 35 17 19 1018.8 1018.9 0.0
27/08:00am 10.8 4.4 6.9 77 1.9 N 30 33 16 18 1018.7 1018.8 0.0
27/07:30am 10.7 4.3 6.8 77 1.9 N 30 35 16 19 1018.7 1018.8 0.0
27/07:00am 11.0 5.3 6.6 74 2.1 N 26 32 14 17 1018.7 1018.8 0.0
27/06:30am 11.3 6.3 6.6 73 2.3 N 22 28 12 15 1018.8 1018.9 0.0
27/06:00am 11.5 6.9 6.4 71 2.4 N 20 30 11 16 1018.9 1019.0 0.0
27/05:30am 11.3 7.7 6.8 74 2.2 N 15 17 8 9 1019.0 1019.1 0.0
27/05:00am 11.0 7.4 6.7 75 2.1 N 15 17 8 9 1019.1 1019.2 0.0
27/04:30am 11.2 7.2 6.7 74 2.2 N 17 20 9 11 1019.3 1019.4 0.0
27/04:00am 11.3 7.0 7.0 75 2.1 N 19 24 10 13 1019.6 1019.7 0.0
27/03:30am 11.1 7.2 7.2 77 1.9 NNW 17 22 9 12 1020.1 1020.1 0.0
27/03:00am 11.1 5.4 6.8 75 2.1 NNW 26 32 14 17 1020.2 1020.2 0.0
27/02:30am 11.0 5.6 6.4 73 2.2 N 24 30 13 16 1020.3 1020.3 0.0
27/02:00am 11.2 6.6 6.3 72 2.3 N 20 28 11 15 1020.5 1020.5 0.0
27/01:30am 11.0 8.1 6.4 73 2.2 N 11 17 6 9 1021.0 1021.0 0.0
27/01:00am 10.8 7.5 6.4 74 2.1 N 13 20 7 11 1021.2 1021.3 0.0
27/12:30am 10.8 6.8 6.6 75 2.0 N 17 20 9 11 1021.5 1021.6 0.0
27/12:00am 10.2 6.5 6.2 76 1.9 NNW 15 19 8 10 1022.0 1022.1 0.0
 
Date/Time
EST
Temp
°C
App
Temp
°C
Dew
Point
Rel
Hum
%
Delta-T
°C
Wind Press
QNH
hPa
Press
MSL
hPa
Rain
since 9 am
mm
Dir
 
Spd
km/h
Gust
km/h
Spd
kts
Gust
kts
26/11:30pm 10.5 6.8 6.1 74 2.1 NNW 15 20 8 11 1022.2 1022.3 0.0
26/11:00pm 10.8 7.5 6.2 73 2.2 NW 13 20 7 11 1022.5 1022.6 0.0
26/10:30pm 11.1 7.5 6.8 75 2.1 N 15 20 8 11 1022.6 1022.7 0.0
26/10:00pm 10.4 6.8 6.9 79 1.7 N 15 19 8 10 1022.7 1022.8 0.0
26/09:30pm 10.2 6.3 7.1 81 1.5 N 17 17 9 9 1022.8 1022.9 0.0
26/09:00pm 9.8 6.3 7.2 84 1.2 NNE 15 17 8 9 1023.0 1023.1 0.0
26/08:30pm 9.8 6.7 7.2 84 1.2 NE 13 15 7 8 1023.1 1023.2 0.0
26/08:00pm 9.6 6.4 6.9 83 1.3 NE 13 15 7 8 1023.4 1023.5 0.0
26/07:30pm 9.7 6.5 6.8 82 1.4 NE 13 17 7 9 1023.5 1023.6 0.0
26/07:00pm 10.0 5.7 6.9 81 1.5 NE 19 22 10 12 1023.5 1023.6 0.0
26/06:30pm 10.2 5.9 6.9 80 1.6 NE 19 22 10 12 1023.6 1023.7 0.0
26/06:00pm 10.4 6.5 6.9 79 1.7 ENE 17 19 9 10 1024.0 1024.0 0.0
26/05:30pm 10.7 7.2 7.2 79 1.7 ENE 15 17 8 9 1023.9 1023.9 0.0
26/05:00pm 11.2 8.1 7.1 76 2.0 ENE 13 15 7 8 1024.0 1024.0 0.0
26/04:30pm 12.0 8.1 7.1 72 2.4 ENE 17 17 9 9 1024.2 1024.2 0.0
26/04:00pm 12.1 8.9 7.0 71 2.5 ENE 13 15 7 8 1024.4 1024.5 0.0
26/03:30pm 12.1 9.6 6.6 69 2.7 E 9 11 5 6 1024.6 1024.7 0.0
26/03:00pm 12.1 9.7 7.0 71 2.5 ENE 9 11 5 6 1024.7 1024.8 0.0
26/02:30pm 12.2 9.8 6.9 70 2.6 ENE 9 11 5 6 1025.0 1025.1 0.0
26/02:00pm 11.7 9.8 7.4 75 2.1 ESE 7 7 4 4 1025.3 1025.4 0.0
26/01:30pm 11.2 9.4 7.1 76 2.0 N 6 7 3 4 1025.8 1025.9 0.0
26/01:00pm 12.1 11.4 6.8 70 2.6 CALM 0 0 0 0 1026.4 1026.5 0.0
26/12:30pm 11.4 10.2 6.5 72 2.3 NNW 2 4 1 2 1026.7 1026.8 0.0
26/12:00pm 10.6 8.5 6.0 73 2.2 NNW 6 7 3 4 1027.2 1027.3 0.0
26/11:30am 10.2 8.8 7.3 82 1.4 N 4 7 2 4 1027.5 1027.7 0.0
26/11:00am 9.3 8.1 6.4 82 1.4 NNW 2 4 1 2 1028.2 1028.3 0.0
26/10:30am 8.6 6.9 5.7 82 1.3 NNW 4 6 2 3 1028.6 1028.7 0.0
26/10:00am 9.6 8.3 6.1 79 1.6 NNW 2 4 1 2 1028.6 1028.7 0.0
26/09:30am 8.4 6.1 4.8 78 1.6 NNW 6 7 3 4 1028.9 1029.0 0.0
26/09:00am 8.8 6.9 4.8 76 1.8 NNW 4 4 2 2 1028.9 1029.0 0.0
26/08:30am 9.2 7.4 5.4 77 1.7 NNW 4 4 2 2 1028.9 1029.0 0.0
26/08:00am 8.6 6.1 4.8 77 1.7 NNW 7 9 4 5 1028.7 1028.8 0.0
26/07:30am 8.3 6.1 5.1 80 1.4 WNW 6 7 3 4 1028.6 1028.7 0.0
26/07:00am 7.1 4.7 4.2 82 1.3 WNW 6 7 3 4 1028.6 1028.7 0.0
26/06:30am 7.8 4.9 4.7 81 1.4 WNW 9 9 5 5 1028.4 1028.5 0.0
26/06:00am 8.0 4.7 4.4 78 1.6 WNW 11 11 6 6 1028.3 1028.4 0.0
26/05:30am 7.5 4.1 4.1 79 1.5 WNW 11 13 6 7 1028.4 1028.5 0.0
26/05:00am 7.8 4.1 4.4 79 1.5 WNW 13 15 7 8 1028.4 1028.5 0.0
26/04:30am 7.5 3.7 4.1 79 1.5 WNW 13 15 7 8 1028.5 1028.6 0.0
26/04:00am 8.1 4.4 4.7 79 1.5 WNW 13 17 7 9 1028.5 1028.6 0.0
26/03:30am 7.8 4.5 4.4 79 1.5 NW 11 13 6 7 1028.6 1028.7 0.0
26/03:00am 7.6 4.3 4.4 80 1.4 NW 11 13 6 7 1028.7 1028.8 0.0
26/02:30am 8.5 4.8 4.7 77 1.7 NW 13 15 7 8 1029.0 1029.1 0.0
26/02:00am 8.7 5.5 4.9 77 1.7 NW 11 13 6 7 1029.0 1029.1 0.0
26/01:30am 8.6 5.0 5.0 78 1.6 NW 13 17 7 9 1029.0 1029.1 0.0
26/01:00am 8.9 5.7 4.9 76 1.8 NW 11 13 6 7 1029.1 1029.2 0.0
26/12:30am 9.1 5.5 5.1 76 1.8 NW 13 15 7 8 1029.1 1029.2 0.0
26/12:00am 9.3 6.1 5.1 75 1.9 NW 11 15 6 8 1029.2 1029.3 0.0
 
Date/Time
EST
Temp
°C
App
Temp
°C
Dew
Point
Rel
Hum
%
Delta-T
°C
Wind Press
QNH
hPa
Press
MSL
hPa
Rain
since 9 am
mm
Dir
 
Spd
km/h
Gust
km/h
Spd
kts
Gust
kts
25/11:30pm 9.5 6.3 5.1 74 2.0 NW 11 13 6 7 1029.4 1029.5 0.0
25/11:00pm 9.7 6.2 5.3 74 2.0 NW 13 15 7 8 1029.4 1029.5 0.0
25/10:30pm 10.8 7.3 5.6 70 2.4 NW 13 17 7 9 1029.5 1029.6 0.0
25/10:00pm 10.4 7.7 5.6 72 2.2 NNW 9 13 5 7 1029.8 1029.9 0.0
25/09:30pm 10.3 7.7 6.3 76 1.9 NE 9 13 5 7 1029.9 1030.0 0.0
25/09:00pm 11.2 7.8 6.1 71 2.4 ENE 13 15 7 8 1029.6 1029.7 0.0
25/08:30pm 10.9 8.0 6.3 73 2.2 ENE 11 13 6 7 1029.7 1029.8 0.0
25/08:00pm 11.1 8.4 5.8 70 2.5 ENE 9 11 5 6 1029.8 1029.9 0.0
25/07:30pm 11.9 9.5 5.3 64 3.1 E 7 9 4 5 1029.7 1029.8 0.0
25/07:00pm 12.7 10.6 5.8 63 3.3 S 6 6 3 3 1029.5 1029.6 0.0
25/06:30pm 12.2 10.2 6.3 67 2.8 S 6 7 3 4 1029.3 1029.4 0.0
25/06:00pm 12.9 11.3 6.3 64 3.2 S 4 6 2 3 1029.0 1029.1 0.0
25/05:30pm 12.9 10.9 6.3 64 3.2 S 6 6 3 3 1028.6 1028.7 0.0
25/05:00pm 12.9 10.9 6.3 64 3.2 S 6 7 3 4 1028.4 1028.5 0.0
25/04:30pm 13.4 11.5 6.7 64 3.3 S 6 6 3 3 1028.4 1028.5 0.0
25/04:00pm 14.7 12.9 7.3 61 3.7 WSW 6 6 3 3 1028.5 1028.6 0.0
25/03:30pm 14.4 12.6 7.0 61 3.7 SW 6 11 3 6 1028.5 1028.6 0.0
25/03:00pm 14.4 12.4 7.0 61 3.6 SW 7 11 4 6 1028.5 1028.6 0.0
25/02:30pm 14.4 12.0 7.0 61 3.7 WSW 9 13 5 7 1028.6 1028.7 0.0
25/02:00pm 14.5 12.2 7.5 63 3.5 W 9 13 5 7 1028.8 1028.9 0.0

Other Formats:

Comma delimited format used in spreadsheet applications
http://www.bom.gov.au/fwo/IDV60801/IDV60801.95845.axf

JavaScript Object Notation format (JSON) in row-major order
http://www.bom.gov.au/fwo/IDV60801/IDV60801.95845.json